Time;durP1;ratioP1;P1;durP2;ratioP2;P2;SDS_P1;SDS_P2;PMS_P1;PMS_P2;Temp;Humidity;BMP_temperature;BMP_pressure;BME280_temperature;BME280_humidity;BME280_pressure;Samples;Min_cycle;Max_cycle;Signal;HPM_P1;HPM_P2
2023/07/27 00:00:15;;;;;;;9.37;6.70;;;23.60;81.50;;;24.28;56.52;94340.13;5079045;28;20481;-61
2023/07/27 00:02:44;;;;;;;7.27;6.70;;;23.60;81.80;;;24.27;55.89;94337.66;5078432;28;20930;-61
2023/07/27 00:05:12;;;;;;;6.93;6.33;;;23.60;81.70;;;24.21;56.18;94350.19;5075752;28;20751;-61
2023/07/27 00:07:40;;;;;;;7.53;6.37;;;23.60;81.50;;;24.17;55.74;94349.03;5080877;28;20461;-60
2023/07/27 00:10:08;;;;;;;7.20;5.27;;;23.50;81.10;;;24.12;55.25;94344.38;5078242;28;20474;-59
2023/07/27 00:12:35;;;;;;;5.43;4.93;;;23.50;80.90;;;24.08;55.18;94339.72;5077409;28;20508;-61
2023/07/27 00:15:02;;;;;;;3.80;3.60;;;23.40;79.80;;;24.01;54.35;94347.06;5073259;28;20551;-60
2023/07/27 00:17:30;;;;;;;4.27;4.07;;;23.40;79.40;;;23.91;54.19;94340.44;5075605;28;20486;-62
2023/07/27 00:19:59;;;;;;;8.70;3.73;;;23.30;78.80;;;23.84;53.85;94333.53;5073556;28;20438;-61
2023/07/27 00:22:26;;;;;;;3.63;3.43;;;23.20;78.50;;;23.77;54.66;94339.03;5076687;28;20461;-60
2023/07/27 00:24:53;;;;;;;7.10;3.63;;;23.10;78.30;;;23.71;53.81;94331.91;5076901;28;20454;-61
2023/07/27 00:27:20;;;;;;;3.50;3.13;;;23.10;78.20;;;23.69;54.07;94331.34;5080469;28;20997;-61
2023/07/27 00:29:47;;;;;;;3.27;3.07;;;23.00;78.10;;;23.64;54.13;94321.31;5075671;28;20457;-59
2023/07/27 00:32:15;;;;;;;3.43;3.10;;;23.00;77.90;;;23.60;54.24;94326.31;5078999;28;20510;-61
2023/07/27 00:34:42;;;;;;;3.53;3.23;;;23.00;78.10;;;23.59;53.70;94327.38;5078405;28;20507;-60
2023/07/27 00:37:10;;;;;;;3.50;3.30;;;22.90;77.70;;;23.56;54.20;94327.00;5082736;28;21596;-61
2023/07/27 00:39:38;;;;;;;3.53;3.20;;;22.90;77.70;;;23.51;53.92;94327.72;5074415;28;20466;-62
2023/07/27 00:42:06;;;;;;;3.30;3.10;;;22.90;77.20;;;23.45;53.72;94332.16;5081630;28;20465;-61
2023/07/27 00:44:33;;;;;;;5.80;2.80;;;22.80;77.40;;;23.41;53.43;94330.19;5077884;28;20470;-63
2023/07/27 00:47:01;;;;;;;3.53;3.20;;;22.80;77.30;;;23.38;53.51;94331.44;5080509;28;21006;-60
2023/07/27 00:49:28;;;;;;;2.30;2.20;;;22.80;77.10;;;23.38;53.78;94333.31;5079459;28;20480;-60
2023/07/27 00:51:55;;;;;;;2.30;2.20;;;22.70;76.90;;;23.35;53.65;94328.44;5079472;28;20479;-61
2023/07/27 00:54:24;;;;;;;6.83;2.03;;;22.70;77.50;;;23.30;53.30;94328.28;5078605;28;20811;-61
2023/07/27 00:56:51;;;;;;;2.23;2.13;;;22.70;76.10;;;23.24;53.33;94336.22;5075377;28;20494;-61
2023/07/27 00:59:18;;;;;;;9.00;1.73;;;22.70;76.10;;;23.17;53.47;94340.06;5075794;28;20452;-60
2023/07/27 01:01:46;;;;;;;2.83;1.83;;;22.60;76.00;;;23.11;52.75;94343.66;5075671;28;20482;-61
2023/07/27 01:04:13;;;;;;;1.67;1.57;;;22.50;76.00;;;23.08;52.96;94350.28;5080108;28;20458;-61
2023/07/27 01:06:40;;;;;;;2.37;2.17;;;22.50;76.40;;;23.08;53.12;94347.59;5075515;28;20870;-61
2023/07/27 01:09:07;;;;;;;4.47;2.13;;;22.50;76.20;;;23.05;53.66;94338.16;5079854;28;20535;-60
2023/07/27 01:11:43;;;;;;;3.57;2.20;;;22.40;76.70;;;23.04;53.62;94336.50;5074485;28;20589;-61
2023/07/27 01:14:14;;;;;;;2.33;2.00;;;22.40;76.60;;;23.05;53.73;94334.63;5074371;28;20455;-61
2023/07/27 01:16:46;;;;;;;4.17;2.20;;;22.40;76.80;;;23.04;53.19;94335.72;5078253;28;21045;-60
2023/07/27 01:19:47;;;;;;;1.90;1.80;;;22.40;76.60;;;23.03;53.51;94339.44;5077204;28;20527;-61
2023/07/27 01:22:27;;;;;;;2.13;2.03;;;22.40;76.90;;;23.04;53.10;94333.03;5079298;28;20471;-61
2023/07/27 01:25:07;;;;;;;11.60;1.90;;;22.40;76.70;;;23.00;53.54;94334.53;5072036;28;20470;-61
2023/07/27 01:27:49;;;;;;;2.27;2.17;;;22.40;76.80;;;22.95;53.20;94337.91;5077169;28;20454;-61
2023/07/27 01:30:49;;;;;;;2.60;1.50;;;22.30;76.40;;;22.96;53.93;94344.06;5075668;28;21179;-60
2023/07/27 01:33:18;;;;;;;1.70;1.60;;;22.30;76.90;;;22.98;53.67;94352.72;5073526;28;20982;-68
2023/07/27 01:35:49;;;;;;;1.87;1.77;;;22.30;76.80;;;23.00;52.92;94353.28;5075030;28;20475;-61
2023/07/27 01:38:17;;;;;;;2.23;1.90;;;22.40;76.60;;;22.98;53.44;94352.72;5078841;28;20808;-62
2023/07/27 01:40:44;;;;;;;1.90;1.80;;;22.30;76.00;;;22.95;52.65;94348.63;5077035;28;20533;-60
2023/07/27 01:43:11;;;;;;;1.97;1.83;;;22.30;75.90;;;22.92;53.06;94354.44;5077445;28;20454;-60
2023/07/27 01:45:39;;;;;;;1.90;1.80;;;22.30;76.10;;;22.89;53.09;94360.25;5077380;28;20471;-61
2023/07/27 01:48:08;;;;;;;2.97;2.00;;;22.30;76.40;;;22.88;53.49;94367.50;5078992;28;20534;-62
2023/07/27 01:50:35;;;;;;;2.13;2.03;;;22.30;76.30;;;22.87;53.16;94371.22;5075034;28;20631;-61
2023/07/27 01:53:02;;;;;;;2.43;2.33;;;22.30;76.50;;;22.89;52.86;94363.75;5074499;28;20935;-61
2023/07/27 01:55:30;;;;;;;2.00;1.87;;;22.30;76.40;;;22.90;53.38;94368.09;5073244;28;20467;-60
2023/07/27 01:57:59;;;;;;;2.20;2.10;;;22.30;76.50;;;22.90;53.33;94381.50;5082271;28;20500;-60
2023/07/27 02:00:27;;;;;;;2.40;2.30;;;22.30;76.00;;;22.88;53.18;94380.06;5075191;28;20538;-61
2023/07/27 02:02:55;;;;;;;3.03;2.67;;;22.30;75.80;;;22.85;52.56;94380.53;5080945;28;20511;-61
2023/07/27 02:05:23;;;;;;;2.43;2.33;;;22.20;76.10;;;22.83;53.19;94402.22;5074840;28;20520;-61
2023/07/27 02:07:51;;;;;;;2.60;2.50;;;22.20;76.20;;;22.83;53.40;94394.16;5076495;28;20495;-61
2023/07/27 02:10:18;;;;;;;3.80;2.53;;;22.20;76.30;;;22.84;53.25;94393.13;5074951;28;20471;-62
2023/07/27 02:12:50;;;;;;;2.80;2.70;;;22.20;76.30;;;22.84;53.37;94403.84;5072909;28;20451;-59
2023/07/27 02:15:22;;;;;;;3.77;3.00;;;22.20;76.70;;;22.87;52.81;94400.72;5074297;28;20496;-61
2023/07/27 02:17:53;;;;;;;3.23;3.03;;;22.20;76.50;;;22.88;53.25;94415.78;5072585;28;20478;-61
2023/07/27 02:20:20;;;;;;;3.03;2.93;;;22.20;76.30;;;22.87;53.55;94408.75;5074277;28;20524;-60
2023/07/27 02:22:49;;;;;;;4.03;3.70;;;22.30;76.50;;;22.89;53.39;94421.94;5074563;28;21019;-62
2023/07/27 02:25:16;;;;;;;3.37;3.17;;;22.30;76.40;;;22.89;53.31;94409.34;5077694;28;20899;-61
2023/07/27 02:27:44;;;;;;;10.03;3.50;;;22.30;76.30;;;22.88;53.54;94421.13;5076757;28;20451;-60
2023/07/27 02:30:12;;;;;;;5.23;4.70;;;22.30;76.50;;;22.88;53.13;94429.19;5077531;28;20477;-63
2023/07/27 02:32:39;;;;;;;4.10;3.90;;;22.30;76.10;;;22.88;52.70;94434.53;5077552;28;21036;-60
2023/07/27 02:35:07;;;;;;;4.57;4.33;;;22.30;76.40;;;22.89;53.26;94422.75;5076384;28;21134;-61
2023/07/27 02:37:35;;;;;;;4.53;4.00;;;22.30;77.00;;;22.89;52.65;94435.34;5076420;28;20579;-62
2023/07/27 02:40:04;;;;;;;4.77;4.47;;;22.30;76.30;;;22.88;52.58;94441.75;5075503;28;20491;-60
2023/07/27 02:42:31;;;;;;;4.10;3.93;;;22.30;76.50;;;22.88;53.12;94434.53;5075782;28;20470;-61
2023/07/27 02:44:58;;;;;;;5.87;5.47;;;22.30;75.80;;;22.87;53.16;94440.94;5077366;28;20503;-61
2023/07/27 02:47:26;;;;;;;3.73;3.53;;;22.30;75.70;;;22.86;52.40;94447.34;5074591;28;20543;-62
2023/07/27 02:49:53;;;;;;;4.13;3.90;;;22.30;75.70;;;22.82;53.09;94443.50;5077038;28;20473;-61
2023/07/27 02:52:20;;;;;;;3.90;3.70;;;22.20;75.60;;;22.80;52.79;94444.75;5070880;28;20445;-62
2023/07/27 02:54:47;;;;;;;5.50;5.00;;;22.20;75.60;;;22.77;52.63;94456.75;5077177;28;20449;-60
2023/07/27 02:57:16;;;;;;;4.83;4.53;;;22.20;75.70;;;22.73;52.52;94452.91;5070040;28;20572;-61
2023/07/27 02:59:43;;;;;;;4.60;4.40;;;22.10;75.50;;;22.71;52.42;94454.97;5073045;28;20461;-60
2023/07/27 03:02:10;;;;;;;7.90;4.73;;;22.10;75.50;;;22.70;52.89;94462.19;5071462;28;20494;-62
2023/07/27 03:04:38;;;;;;;4.27;4.07;;;22.10;75.50;;;22.71;52.71;94460.34;5079795;28;20842;-62
2023/07/27 03:07:06;;;;;;;5.80;4.77;;;22.10;75.50;;;22.72;52.67;94465.47;5073652;28;20482;-61
2023/07/27 03:09:34;;;;;;;4.90;4.60;;;22.10;75.30;;;22.74;52.55;94463.41;5078749;28;20462;-61
2023/07/27 03:12:02;;;;;;;4.90;4.60;;;22.10;75.00;;;22.78;52.16;94471.81;5069306;28;20475;-61
2023/07/27 03:14:30;;;;;;;7.53;4.53;;;22.20;74.80;;;22.79;52.25;94461.88;5069731;28;20461;-61
2023/07/27 03:16:57;;;;;;;4.53;4.33;;;22.20;74.60;;;22.77;51.51;94464.78;5073255;28;21072;-62
2023/07/27 03:19:25;;;;;;;4.23;4.03;;;22.20;74.10;;;22.71;52.14;94469.22;5072536;28;20464;-61
2023/07/27 03:21:52;;;;;;;4.63;4.33;;;22.10;74.00;;;22.72;51.46;94467.34;5073301;28;20528;-63
2023/07/27 03:24:19;;;;;;;4.50;3.90;;;22.10;73.90;;;22.70;51.24;94467.56;5076784;28;20467;-60
2023/07/27 03:26:47;;;;;;;4.00;3.80;;;22.10;73.50;;;22.67;50.80;94470.69;5075938;28;20530;-62
2023/07/27 03:29:14;;;;;;;3.77;3.57;;;22.10;72.90;;;22.62;50.88;94467.03;5072859;28;20470;-61
2023/07/27 03:31:43;;;;;;;4.23;3.93;;;22.00;73.10;;;22.61;50.92;94465.41;5079038;28;20527;-61
2023/07/27 03:34:11;;;;;;;4.10;3.90;;;22.00;72.80;;;22.60;50.86;94471.81;5072684;28;21026;-64
2023/07/27 03:36:38;;;;;;;4.70;3.43;;;22.00;72.80;;;22.59;50.74;94480.88;5078433;28;20803;-62
2023/07/27 03:39:05;;;;;;;5.60;3.23;;;22.00;72.30;;;22.54;50.12;94477.03;5072693;28;20576;-61
2023/07/27 03:41:32;;;;;;;3.73;3.43;;;22.00;72.00;;;22.50;50.37;94486.56;5077081;28;20899;-61
2023/07/27 03:43:59;;;;;;;3.23;3.13;;;21.90;71.70;;;22.47;49.99;94496.91;5074779;28;20459;-61
2023/07/27 03:46:27;;;;;;;5.23;3.30;;;21.90;71.50;;;22.43;50.30;94493.84;5076441;28;20892;-62
2023/07/27 03:48:56;;;;;;;4.70;3.37;;;21.80;71.40;;;22.40;50.08;94498.84;5074681;28;20558;-63
2023/07/27 03:51:23;;;;;;;10.23;2.60;;;21.80;70.80;;;22.38;49.77;94507.09;5076753;28;20481;-64
2023/07/27 03:53:50;;;;;;;3.57;3.23;;;21.80;70.80;;;22.35;50.16;94499.50;5073954;28;20451;-63
2023/07/27 03:56:17;;;;;;;2.93;2.73;;;21.80;71.00;;;22.33;49.98;94506.97;5076512;28;20478;-61
2023/07/27 03:58:45;;;;;;;3.77;2.43;;;21.80;70.80;;;22.31;49.73;94519.78;5072762;28;20498;-61
2023/07/27 04:01:12;;;;;;;2.40;2.20;;;21.70;70.70;;;22.29;49.14;94527.16;5079595;28;20611;-61
2023/07/27 04:03:39;;;;;;;4.33;2.50;;;21.70;70.20;;;22.27;49.33;94527.38;5069950;28;20447;-60
2023/07/27 04:06:08;;;;;;;2.60;2.40;;;21.70;70.10;;;22.24;49.02;94535.84;5079524;28;20569;-62
2023/07/27 04:08:35;;;;;;;2.63;2.40;;;21.70;69.70;;;22.20;48.96;94532.81;5070827;28;20447;-60
2023/07/27 04:11:02;;;;;;;2.23;2.13;;;21.60;69.40;;;22.17;49.15;94541.28;5078914;28;20480;-62
2023/07/27 04:13:30;;;;;;;3.50;3.20;;;21.60;69.70;;;22.17;49.24;94552.00;5072439;28;20451;-62
2023/07/27 04:15:57;;;;;;;3.07;2.87;;;21.60;69.70;;;22.19;49.12;94563.31;5070570;28;20473;-60
2023/07/27 04:18:24;;;;;;;2.20;2.00;;;21.60;69.80;;;22.25;49.18;94579.56;5074083;28;20487;-63
2023/07/27 04:20:51;;;;;;;14.40;3.60;;;21.60;69.70;;;22.26;48.54;94565.09;5072915;28;21002;-62
2023/07/27 04:23:20;;;;;;;7.13;3.73;;;21.70;69.30;;;22.27;48.82;94562.22;5071921;28;20454;-61
2023/07/27 04:25:47;;;;;;;6.83;3.60;;;21.70;69.00;;;22.28;48.54;94560.38;5074709;28;20469;-62
2023/07/27 04:28:14;;;;;;;4.07;2.50;;;21.70;68.50;;;22.28;48.29;94579.13;5072402;28;20518;-61
2023/07/27 04:30:43;;;;;;;5.07;3.37;;;21.70;68.50;;;22.27;47.91;94582.84;5074955;28;21236;-61
2023/07/27 04:33:10;;;;;;;3.53;2.37;;;21.70;68.50;;;22.25;47.66;94584.91;5074637;28;20482;-61
2023/07/27 04:35:37;;;;;;;3.27;2.97;;;21.70;67.70;;;22.12;46.44;94581.31;5076907;28;20470;-60
2023/07/27 04:38:05;;;;;;;4.03;2.20;;;21.60;66.10;;;21.95;47.23;94591.75;5073163;28;20542;-63
2023/07/27 04:40:33;;;;;;;4.20;1.67;;;21.50;66.60;;;21.80;47.79;94600.06;5079487;28;20473;-62
2023/07/27 04:43:01;;;;;;;2.07;1.97;;;21.40;67.20;;;21.67;47.59;94613.53;5076465;28;21304;-63
2023/07/27 04:45:28;;;;;;;9.50;2.17;;;21.20;67.10;;;21.59;47.62;94613.81;5079571;28;20473;-62
2023/07/27 04:47:55;;;;;;;8.33;3.90;;;21.10;67.00;;;21.49;47.65;94615.09;5077906;28;20590;-62
2023/07/27 04:50:22;;;;;;;3.23;3.03;;;21.00;66.80;;;21.41;47.71;94617.16;5078353;28;20471;-64
2023/07/27 04:52:50;;;;;;;2.13;2.00;;;20.90;67.10;;;21.33;48.02;94620.06;5082059;28;20956;-60
2023/07/27 04:55:17;;;;;;;4.00;3.47;;;20.80;67.10;;;21.25;47.97;94624.63;5076180;28;20808;-60
2023/07/27 04:57:46;;;;;;;2.53;2.17;;;20.70;67.40;;;21.18;48.15;94631.03;5081251;28;20894;-62
2023/07/27 05:00:14;;;;;;;4.17;2.40;;;20.70;67.40;;;21.12;48.05;94628.19;5075140;28;20487;-62
2023/07/27 05:02:41;;;;;;;2.67;2.47;;;20.60;67.30;;;21.06;47.99;94629.03;5079564;28;20449;-61
2023/07/27 05:05:09;;;;;;;5.73;2.43;;;20.60;67.30;;;21.00;48.25;94627.19;5077351;28;20474;-62
2023/07/27 05:07:37;;;;;;;3.87;2.40;;;20.50;67.20;;;20.96;48.17;94636.69;5079589;28;20964;-60
2023/07/27 05:10:05;;;;;;;2.97;2.77;;;20.50;67.20;;;20.91;47.76;94629.28;5078203;28;20479;-61
2023/07/27 05:12:32;;;;;;;2.23;1.97;;;20.40;67.10;;;20.86;48.02;94642.44;5078130;28;20454;-61
2023/07/27 05:15:00;;;;;;;3.67;2.30;;;20.40;67.10;;;20.81;48.24;94644.13;5073204;28;20443;-60
2023/07/27 05:17:28;;;;;;;2.63;2.13;;;20.40;67.10;;;20.80;48.22;94637.13;5073987;28;20496;-62
2023/07/27 05:19:56;;;;;;;5.00;3.13;;;20.30;67.00;;;20.80;48.11;94643.28;5072892;28;20443;-62
2023/07/27 05:22:23;;;;;;;7.43;2.80;;;20.30;67.30;;;20.82;48.18;94645.75;5077051;28;20522;-62
2023/07/27 05:24:50;;;;;;;2.90;2.70;;;20.30;67.20;;;20.82;47.96;94648.41;5075141;28;20500;-63
2023/07/27 05:27:17;;;;;;;2.90;2.47;;;20.30;67.90;;;20.81;48.68;94638.78;5082105;28;21296;-62
2023/07/27 05:29:44;;;;;;;3.93;2.90;;;20.30;67.00;;;20.84;48.31;94655.22;5073981;28;20508;-60
2023/07/27 05:32:13;;;;;;;3.53;2.90;;;20.30;67.70;;;20.87;48.83;94645.97;5081053;28;20946;-62
2023/07/27 05:34:40;;;;;;;5.37;2.07;;;20.40;68.20;;;20.92;48.51;94656.84;5075313;28;20458;-61
2023/07/27 05:37:07;;;;;;;3.10;2.37;;;20.40;68.20;;;20.94;48.62;94654.78;5080500;28;20454;-63
2023/07/27 05:39:35;;;;;;;3.37;2.53;;;20.40;68.40;;;20.95;49.39;94651.88;5075375;28;20512;-62
2023/07/27 05:42:02;;;;;;;2.63;2.20;;;20.50;69.40;;;20.98;49.39;94660.53;5080881;28;20470;-63
2023/07/27 05:44:29;;;;;;;8.43;2.50;;;20.50;70.00;;;20.97;49.71;94648.19;5075075;28;20446;-61
2023/07/27 05:46:56;;;;;;;5.03;2.60;;;20.50;70.40;;;20.95;49.18;94651.06;5073246;28;20481;-61
2023/07/27 05:49:26;;;;;;;10.90;2.83;;;20.50;69.40;;;20.97;49.33;94662.38;5078146;28;20458;-60
2023/07/27 05:51:53;;;;;;;2.60;2.10;;;20.40;69.00;;;21.04;48.79;94655.16;5072980;28;20474;-61
2023/07/27 05:54:20;;;;;;;2.30;2.20;;;20.50;68.80;;;21.17;48.77;94669.53;5077040;28;20480;-61
2023/07/27 05:56:48;;;;;;;2.90;2.00;;;20.60;68.70;;;21.33;48.52;94670.91;5079034;28;20506;-61
2023/07/27 05:59:15;;;;;;;5.10;1.87;;;20.70;68.70;;;21.48;47.84;94671.47;5076051;28;20478;-61
2023/07/27 06:01:42;;;;;;;2.50;1.87;;;20.90;67.60;;;21.63;47.67;94663.19;5075022;28;20475;-61
2023/07/27 06:04:10;;;;;;;2.57;1.93;;;21.00;67.50;;;21.75;47.37;94664.16;5075535;28;20534;-61
2023/07/27 06:06:38;;;;;;;5.80;2.37;;;21.10;66.90;;;21.92;46.54;94667.16;5077770;28;20509;-62
2023/07/27 06:09:09;;;;;;;3.43;1.90;;;21.30;66.10;;;22.07;46.65;94666.03;5077691;28;20461;-61
2023/07/27 06:11:37;;;;;;;2.10;2.00;;;21.40;65.60;;;22.23;46.18;94656.63;5076779;28;21039;-61
2023/07/27 06:14:04;;;;;;;1.93;1.83;;;21.60;65.30;;;22.38;45.70;94657.16;5074971;28;20455;-62
2023/07/27 06:16:31;;;;;;;1.67;1.50;;;21.70;64.80;;;22.51;45.26;94678.50;5070471;28;20470;-63
2023/07/27 06:18:58;;;;;;;6.17;1.60;;;21.80;64.00;;;22.66;44.56;94663.94;5074550;28;20575;-61
2023/07/27 06:21:26;;;;;;;3.20;1.40;;;22.00;62.90;;;22.78;44.81;94664.88;5067566;28;20525;-62
2023/07/27 06:23:54;;;;;;;3.90;1.30;;;22.10;63.00;;;22.91;42.82;94659.38;5078860;28;20465;-62
2023/07/27 06:26:21;;;;;;;1.37;1.27;;;22.30;61.30;;;23.03;43.65;94664.81;5074615;28;20912;-62
2023/07/27 06:28:48;;;;;;;1.73;1.50;;;22.40;62.40;;;23.19;43.33;94662.63;5076333;28;20443;-60
2023/07/27 06:31:15;;;;;;;1.77;1.53;;;22.50;60.80;;;23.32;42.91;94665.16;5073145;28;20470;-62
2023/07/27 06:33:42;;;;;;;7.63;1.50;;;22.60;60.10;;;;;;5077839;28;20954;-62
2023/07/27 06:36:11;;;;;;;3.40;1.50;;;22.80;60.50;;;23.61;41.93;94671.63;5070553;28;20558;-60
2023/07/27 06:38:39;;;;;;;1.60;1.50;;;22.90;59.60;;;23.77;42.02;94666.69;5078827;28;20489;-61
2023/07/27 06:41:07;;;;;;;8.43;1.93;;;23.10;59.50;;;23.91;41.84;94675.41;5070404;28;20475;-61
2023/07/27 06:43:34;;;;;;;6.30;1.10;;;23.20;59.10;;;24.04;41.20;94672.50;5077716;28;20457;-62
2023/07/27 06:46:02;;;;;;;1.77;0.90;;;23.30;58.80;;;24.20;40.78;94670.22;5072513;28;20520;-62
2023/07/27 06:48:29;;;;;;;4.40;1.30;;;23.50;58.80;;;24.36;40.98;94668.75;5079085;28;20547;-61
2023/07/27 06:50:57;;;;;;;3.47;1.60;;;23.70;58.50;;;24.52;40.43;94668.06;5075112;28;21103;-60
2023/07/27 06:53:24;;;;;;;1.30;1.20;;;23.80;58.30;;;24.70;40.22;94662.63;5077040;28;20460;-62
2023/07/27 06:55:51;;;;;;;5.70;1.53;;;24.00;58.10;;;24.84;39.80;94660.53;5078522;28;20530;-63
2023/07/27 06:58:20;;;;;;;7.67;1.23;;;24.10;56.80;;;24.99;38.68;94660.06;5074576;28;21070;-61
2023/07/27 07:00:47;;;;;;;3.70;1.10;;;24.30;56.60;;;25.10;38.59;94654.88;5077405;28;20546;-61
2023/07/27 07:03:14;;;;;;;3.40;1.77;;;24.40;56.60;;;25.18;38.90;94649.16;5074144;28;20465;-62
2023/07/27 07:05:41;;;;;;;4.40;1.80;;;24.50;56.10;;;25.23;38.52;94655.44;5077747;28;20542;-63
2023/07/27 07:08:09;;;;;;;3.33;1.40;;;24.50;55.60;;;25.26;38.22;94656.84;5073237;28;20458;-61
2023/07/27 07:10:36;;;;;;;4.10;1.40;;;24.60;55.50;;;25.29;37.88;94656.41;5076196;28;20465;-62
2023/07/27 07:13:03;;;;;;;2.27;1.60;;;24.60;55.10;;;25.36;38.14;94653.56;5071829;28;20473;-60
2023/07/27 07:15:32;;;;;;;2.27;1.83;;;24.70;55.70;;;25.45;37.96;94654.84;5072794;28;20492;-61
2023/07/27 07:17:59;;;;;;;2.10;2.00;;;24.70;55.40;;;25.53;38.22;94651.81;5071465;28;20484;-64
2023/07/27 07:20:26;;;;;;;6.10;1.60;;;24.80;55.20;;;25.62;38.10;94652.22;5073120;28;20953;-60
2023/07/27 07:22:54;;;;;;;6.77;2.03;;;24.90;55.10;;;25.73;38.01;94654.06;5075609;28;20458;-61
2023/07/27 07:25:21;;;;;;;7.90;1.40;;;25.00;54.80;;;25.83;37.47;94648.06;5076779;28;20546;-62
2023/07/27 07:27:48;;;;;;;7.37;1.70;;;25.10;55.00;;;25.90;37.37;94642.50;5075317;28;20459;-63
2023/07/27 07:30:16;;;;;;;4.77;1.83;;;25.20;54.40;;;25.95;37.32;94654.22;5076432;28;20522;-62
2023/07/27 07:32:44;;;;;;;11.13;1.60;;;25.30;53.90;;;25.99;36.87;94654.56;5071353;28;20450;-61
2023/07/27 07:35:12;;;;;;;5.30;1.13;;;25.30;53.60;;;26.02;36.50;94654.09;5079218;28;20469;-61
2023/07/27 07:37:39;;;;;;;4.83;1.70;;;25.40;53.20;;;26.04;36.56;94643.91;5072404;28;20492;-63
2023/07/27 07:40:08;;;;;;;4.23;1.50;;;25.40;53.60;;;26.08;36.46;94652.31;5079351;28;20496;-61
2023/07/27 07:42:35;;;;;;;1.80;1.00;;;25.40;53.50;;;26.10;35.65;94648.31;5074289;28;20446;-62
2023/07/27 07:45:03;;;;;;;7.43;1.57;;;25.50;52.60;;;26.14;35.93;94651.34;5075639;28;20540;-60
2023/07/27 07:47:30;;;;;;;3.47;1.50;;;25.50;52.80;;;26.09;35.63;94652.06;5078745;28;20465;-61
2023/07/27 07:50:00;;;;;;;2.30;1.20;;;25.40;52.30;;;26.03;35.65;94654.94;5072823;28;20503;-62
2023/07/27 07:52:28;;;;;;;1.50;1.40;;;25.40;52.50;;;26.03;36.09;94649.53;5072600;28;20499;-61
2023/07/27 07:54:55;;;;;;;10.10;1.87;;;25.40;52.60;;;26.07;36.38;94659.59;5076496;28;20464;-63
2023/07/27 07:57:22;;;;;;;11.13;1.67;;;25.40;52.90;;;26.13;34.27;94657.78;5074785;28;20454;-62
2023/07/27 07:59:50;;;;;;;9.83;1.70;;;25.50;51.40;;;26.21;35.49;94667.34;5076526;28;20485;-61
2023/07/27 08:02:17;;;;;;;5.27;2.00;;;25.50;52.00;;;26.27;34.59;94663.69;5073749;28;20449;-62
2023/07/27 08:04:44;;;;;;;4.17;1.77;;;25.60;51.10;;;26.33;35.32;94659.22;5078017;28;20884;-61
2023/07/27 08:07:13;;;;;;;3.83;1.60;;;25.70;52.00;;;26.42;35.63;94663.94;5072466;28;20450;-62
2023/07/27 08:09:41;;;;;;;15.67;1.73;;;25.70;52.10;;;26.53;34.47;94658.75;5078461;28;20449;-62
2023/07/27 08:12:08;;;;;;;8.67;2.30;;;25.80;51.00;;;26.59;34.37;94655.06;5073326;28;20966;-62
2023/07/27 08:14:35;;;;;;;4.50;1.57;;;25.90;50.80;;;26.63;34.68;94661.56;5072723;28;20458;-62
2023/07/27 08:17:03;;;;;;;6.03;2.00;;;26.00;50.80;;;26.65;34.46;94656.78;5078509;28;20992;-62
2023/07/27 08:19:30;;;;;;;9.53;3.27;;;26.00;50.80;;;26.65;34.70;94659.47;5076090;28;20542;-61
2023/07/27 08:21:58;;;;;;;40.90;4.70;;;26.00;51.10;;;26.68;34.76;94655.47;5077658;28;20556;-61
2023/07/27 08:24:26;;;;;;;6.20;1.80;;;26.00;50.80;;;26.70;34.07;94666.88;5077914;28;20833;-63
2023/07/27 08:26:54;;;;;;;13.77;2.03;;;26.00;50.10;;;26.74;33.99;94666.13;5074555;28;20473;-61
2023/07/27 08:29:21;;;;;;;10.90;1.40;;;26.10;50.20;;;26.83;33.58;94664.66;5080401;28;20446;-61
2023/07/27 08:31:48;;;;;;;4.43;2.43;;;26.20;50.10;;;26.89;33.54;94657.44;5079122;28;20551;-61
2023/07/27 08:34:15;;;;;;;3.33;2.40;;;26.30;49.70;;;26.94;33.78;94643.19;5074858;28;20930;-62
2023/07/27 08:36:43;;;;;;;9.27;1.60;;;26.30;50.20;;;27.04;34.16;94656.84;5078672;28;20477;-61
2023/07/27 08:39:10;;;;;;;8.67;1.70;;;26.40;50.30;;;27.16;33.56;94657.56;5078759;28;20489;-62
2023/07/27 08:41:39;;;;;;;4.83;1.80;;;26.50;49.80;;;27.22;33.54;94663.00;5080924;28;20527;-60
2023/07/27 08:44:06;;;;;;;6.60;1.80;;;26.60;49.20;;;27.25;34.04;94659.81;5073654;28;20804;-62
2023/07/27 08:46:34;;;;;;;39.03;3.40;;;26.60;49.90;;;27.25;32.86;94662.50;5080389;28;20559;-62
2023/07/27 08:49:01;;;;;;;9.67;1.93;;;26.70;48.70;;;27.18;32.99;94655.41;5074455;28;21020;-61
2023/07/27 08:51:30;;;;;;;13.60;1.67;;;26.60;48.70;;;27.08;32.51;94659.84;5079967;28;20985;-63
2023/07/27 08:53:57;;;;;;;11.10;1.60;;;26.50;48.60;;;27.00;33.62;94651.13;5073971;28;20454;-61
2023/07/27 08:56:25;;;;;;;42.53;4.33;;;26.50;49.00;;;26.92;33.45;94672.31;5083155;28;20465;-64
2023/07/27 08:58:54;;;;;;;3.13;2.20;;;26.40;48.90;;;26.83;33.72;94666.50;5074152;28;20934;-62
2023/07/27 09:01:23;;;;;;;2.93;1.27;;;26.30;49.50;;;26.80;33.70;94662.44;5079634;28;21045;-62
2023/07/27 09:03:50;;;;;;;11.03;1.50;;;26.30;49.50;;;26.71;33.96;94666.63;5071636;28;20511;-62
2023/07/27 09:06:17;;;;;;;4.33;1.73;;;26.20;49.70;;;26.72;34.54;94672.81;5080754;28;20618;-63
2023/07/27 09:08:46;;;;;;;9.20;1.40;;;26.10;50.50;;;26.82;34.33;94657.59;5076856;28;20462;-62
2023/07/27 09:11:13;;;;;;;41.27;2.60;;;26.20;50.60;;;26.95;34.05;94667.22;5080307;28;20461;-62
2023/07/27 09:13:42;;;;;;;4.13;1.50;;;26.30;50.30;;;27.07;33.47;94664.44;5075403;28;20456;-63
2023/07/27 09:16:10;;;;;;;8.60;1.63;;;26.40;49.50;;;27.02;32.54;94658.97;5082708;28;20482;-61
2023/07/27 09:18:38;;;;;;;11.70;1.40;;;26.40;48.20;;;26.91;33.66;94670.66;5074516;28;20543;-62
2023/07/27 09:21:09;;;;;;;17.27;1.73;;;26.40;49.20;;;26.79;33.89;94666.19;5075817;28;20467;-61
2023/07/27 09:23:37;;;;;;;1.93;1.10;;;26.30;49.50;;;26.76;34.01;94665.88;5076786;28;20519;-61
2023/07/27 09:26:05;;;;;;;7.03;1.40;;;26.20;50.10;;;26.77;34.18;94673.72;5077538;28;20481;-62
2023/07/27 09:28:32;;;;;;;6.77;2.20;;;26.20;50.30;;;26.85;33.87;94677.91;5079331;28;20442;-62
2023/07/27 09:31:00;;;;;;;13.13;2.27;;;26.20;50.00;;;26.88;34.17;94681.97;5074531;28;20905;-62
2023/07/27 09:33:28;;;;;;;10.23;1.90;;;26.30;50.10;;;26.92;34.27;94675.00;5082494;28;20506;-60
2023/07/27 09:35:56;;;;;;;10.33;1.80;;;26.30;50.30;;;26.88;34.05;94673.88;5074348;28;21103;-62
2023/07/27 09:38:26;;;;;;;2.80;1.43;;;26.30;50.00;;;26.88;33.90;94671.16;5081746;28;21032;-62
2023/07/27 09:40:53;;;;;;;6.63;1.23;;;26.30;49.90;;;26.89;33.60;94683.59;5073299;28;20470;-61
2023/07/27 09:43:23;;;;;;;5.27;1.60;;;26.30;48.80;;;26.84;32.75;94674.34;5080631;28;20450;-61
2023/07/27 09:45:58;;;;;;;2.30;1.47;;;26.30;48.50;;;26.77;33.44;94668.34;5071828;28;20474;-61
2023/07/27 09:48:25;;;;;;;3.60;1.40;;;26.20;48.80;;;26.74;33.94;94685.00;5076645;28;20467;-63
2023/07/27 09:50:54;;;;;;;2.83;1.37;;;26.20;49.60;;;26.79;33.83;94685.09;5079947;28;20476;-62
2023/07/27 09:53:22;;;;;;;4.03;1.47;;;26.20;49.50;;;26.88;33.99;94679.25;5076740;28;20539;-63
2023/07/27 09:55:50;;;;;;;5.53;1.10;;;26.30;49.70;;;26.95;33.49;94685.31;5075272;28;20910;-61
2023/07/27 09:58:17;;;;;;;3.43;1.40;;;26.30;49.20;;;26.96;33.19;94681.56;5073713;28;20472;-62
2023/07/27 10:00:44;;;;;;;3.97;1.73;;;26.30;48.50;;;26.97;32.73;94675.91;5078857;28;20644;-62
2023/07/27 10:03:11;;;;;;;3.70;1.47;;;26.40;48.50;;;26.93;32.42;94680.16;5078104;28;20450;-63
2023/07/27 10:05:39;;;;;;;2.20;1.80;;;26.40;48.00;;;26.89;33.28;94679.00;5077166;28;20469;-65
2023/07/27 10:08:08;;;;;;;14.10;1.90;;;26.30;48.50;;;26.89;33.36;94672.81;5079429;28;20453;-63
2023/07/27 10:10:39;;;;;;;4.80;1.80;;;26.30;48.70;;;26.88;32.18;94676.56;5076699;28;20484;-62
2023/07/27 10:13:08;;;;;;;4.80;1.60;;;26.30;47.90;;;26.80;32.44;94677.78;5069329;28;20457;-62
2023/07/27 10:15:41;;;;;;;7.73;1.80;;;26.20;48.10;;;26.73;32.84;94674.47;5075522;28;20508;-61
2023/07/27 10:18:08;;;;;;;9.43;1.73;;;26.20;47.90;;;26.69;32.51;94674.13;5073025;28;20533;-61
2023/07/27 10:20:35;;;;;;;6.43;2.10;;;26.10;47.90;;;26.64;32.97;94663.22;5075624;28;20489;-62
2023/07/27 10:23:17;;;;;;;4.87;1.20;;;26.10;48.30;;;26.61;31.73;94658.31;5074483;28;20457;-63